Terminal Aerodrome Forecast
Issued by NWS Jackson, KY

Home | Current Version | Previous Version | Text Only | Print | Product List | Glossary On
Versions: 1 2 3 4 5 6 7 8 9 10 11 12 13 14 15
247
FTUS43 KJKL 212332
TAFJKL
TAF
KJKL 212332Z 2200/2224 VRB03KT P6SM VCSH SCT040 BKN100
     FM220100 VRB03KT P6SM SCT100
     FM220600 VRB03KT 6SM BR FEW100
     FM221200 19005KT P6SM VCSH SCT030 BKN080
     FM221500 23005KT P6SM VCTS SCT040CB BKN100=

USA.gov is the U.S. government's official web portal to all federal, state and local government web resources and services.